createdAt,value
2023-01-30T00:04:29.324Z,17.38
2023-01-30T00:09:30.813Z,18.13
2023-01-30T00:14:32.304Z,17.85
2023-01-30T00:19:33.812Z,16.33
2023-01-30T00:24:35.399Z,16.45
2023-01-30T00:29:36.943Z,17.48
2023-01-30T00:34:38.450Z,16.13
2023-01-30T00:39:39.948Z,16.30
2023-01-30T00:45:00.198Z,17.30
2023-01-30T00:50:01.803Z,17.23
2023-01-30T00:55:03.864Z,18.05
2023-01-30T01:00:06.099Z,16.85
2023-01-30T01:05:07.984Z,17.35
2023-01-30T01:10:16.219Z,16.20
2023-01-30T01:15:18.596Z,17.35
2023-01-30T01:20:23.119Z,16.90
2023-01-30T01:25:25.549Z,16.58
2023-01-30T01:30:27.102Z,16.27
2023-01-30T01:35:28.612Z,15.35
2023-01-30T01:40:48.695Z,15.85
2023-01-30T01:45:55.595Z,16.30
2023-01-30T01:51:15.800Z,15.53
2023-01-30T01:56:19.897Z,14.55
2023-01-30T02:06:25.250Z,16.38
2023-01-30T02:11:49.676Z,15.48
2023-01-30T02:16:51.227Z,15.32
2023-01-30T02:22:20.628Z,16.10
2023-01-30T02:28:00.775Z,14.70
2023-01-30T02:33:11.049Z,14.73
2023-01-30T02:38:45.871Z,16.23
2023-01-30T02:44:26.580Z,15.88
2023-01-30T02:49:34.636Z,16.20
2023-01-30T02:54:36.214Z,15.03
2023-01-30T02:59:43.251Z,15.52
2023-01-30T03:05:18.743Z,14.93
2023-01-30T03:15:50.039Z,14.60
2023-01-30T03:20:51.728Z,15.70
2023-01-30T03:25:53.791Z,14.50
2023-01-30T03:30:55.567Z,15.05
2023-01-30T03:35:57.230Z,15.13
2023-01-30T03:40:58.813Z,14.27
2023-01-30T03:46:00.485Z,15.23
2023-01-30T03:51:03.534Z,14.32
2023-01-30T03:56:05.498Z,13.48
2023-01-30T04:01:09.638Z,13.95
2023-01-30T04:06:11.541Z,14.23
2023-01-30T04:11:13.202Z,14.80
2023-01-30T04:16:23.883Z,13.55
2023-01-30T04:21:44.107Z,13.35
2023-01-30T04:26:46.543Z,13.50
2023-01-30T04:31:48.685Z,13.27
2023-01-30T04:37:02.504Z,15.02
2023-01-30T04:42:05.468Z,16.25
2023-01-30T04:47:14.902Z,13.45
2023-01-30T04:52:16.629Z,13.25
2023-01-30T04:57:18.166Z,13.27
2023-01-30T05:02:21.273Z,12.65
2023-01-30T05:07:24.470Z,12.60
2023-01-30T05:12:26.020Z,12.52
2023-01-30T05:17:27.765Z,12.57
2023-01-30T05:22:29.288Z,13.05
2023-01-30T05:27:30.923Z,12.68
2023-01-30T05:32:32.458Z,12.68
2023-01-30T05:37:34.042Z,12.63
2023-01-30T05:42:35.599Z,12.30
2023-01-30T05:47:37.192Z,12.35
2023-01-30T05:52:38.726Z,13.23
2023-01-30T05:57:40.263Z,13.35
2023-01-30T06:02:41.880Z,12.50
2023-01-30T06:07:43.415Z,11.85
2023-01-30T06:12:44.932Z,13.63
2023-01-30T06:17:46.489Z,13.23
2023-01-30T06:22:49.137Z,11.40
2023-01-30T06:27:50.793Z,12.65
2023-01-30T06:32:52.470Z,11.15
2023-01-30T06:37:54.019Z,10.55
2023-01-30T06:42:55.606Z,11.25
2023-01-30T06:47:57.246Z,14.40
2023-01-30T06:53:01.172Z,11.65
2023-01-30T06:58:06.988Z,11.68
2023-01-30T07:03:16.583Z,10.73
2023-01-30T07:08:18.211Z,11.05
2023-01-30T07:13:19.753Z,10.40
2023-01-30T07:18:21.369Z,10.80
2023-01-30T07:23:22.889Z,10.75
2023-01-30T07:28:24.435Z,10.48
2023-01-30T07:33:26.022Z,11.10
2023-01-30T07:38:27.680Z,9.63
2023-01-30T07:43:29.251Z,10.18
2023-01-30T07:48:30.776Z,10.30
2023-01-30T07:53:32.296Z,10.10
2023-01-30T07:58:33.956Z,11.13
2023-01-30T08:03:35.621Z,10.95
2023-01-30T08:08:37.277Z,11.15
2023-01-30T08:13:38.769Z,11.68
2023-01-30T08:18:40.316Z,10.88
2023-01-30T08:23:41.818Z,11.40
2023-01-30T08:28:43.438Z,9.98
2023-01-30T08:33:44.971Z,10.60
2023-01-30T08:38:46.676Z,10.18
2023-01-30T08:43:48.203Z,10.95
2023-01-30T08:48:50.555Z,9.73
2023-01-30T08:53:52.253Z,10.18
2023-01-30T08:58:54.001Z,9.40
2023-01-30T09:03:55.641Z,9.65
2023-01-30T09:08:59.649Z,9.20
2023-01-30T09:14:01.494Z,10.00
2023-01-30T09:19:03.331Z,9.32
2023-01-30T09:24:05.948Z,9.02
2023-01-30T09:29:07.519Z,8.13
2023-01-30T09:34:09.178Z,8.73
2023-01-30T09:39:10.677Z,7.57
2023-01-30T09:45:07.803Z,7.13
2023-01-30T09:50:42.164Z,7.65
2023-01-30T09:55:46.157Z,8.43
2023-01-30T10:00:51.753Z,8.43
2023-01-30T10:05:58.842Z,8.73
2023-01-30T10:11:41.086Z,8.73
2023-01-30T10:16:53.926Z,8.45
2023-01-30T10:22:28.984Z,9.13
2023-01-30T10:27:32.844Z,8.70
2023-01-30T10:32:55.856Z,8.32
2023-01-30T10:38:27.068Z,7.65
2023-01-30T10:43:41.447Z,8.57
2023-01-30T10:48:59.534Z,7.15
2023-01-30T10:54:03.503Z,8.38
2023-01-30T10:59:24.738Z,6.75
2023-01-30T11:04:39.505Z,6.60
2023-01-30T11:09:43.186Z,5.90
2023-01-30T11:14:58.747Z,6.22
2023-01-30T11:20:11.867Z,6.32
2023-01-30T11:25:21.746Z,5.45
2023-01-30T11:30:29.037Z,5.78
2023-01-30T11:35:32.843Z,5.37
2023-01-30T11:40:39.867Z,5.20
2023-01-30T11:45:45.665Z,5.20
2023-01-30T11:50:50.251Z,20.20
2023-01-30T11:56:19.741Z,7.60
2023-01-30T12:01:28.197Z,5.03
2023-01-30T12:06:41.727Z,5.55
2023-01-30T12:11:46.349Z,5.35
2023-01-30T12:17:00.387Z,5.95
2023-01-30T12:22:22.843Z,5.93
2023-01-30T12:28:12.563Z,5.55
2023-01-30T12:33:22.299Z,5.57
2023-01-30T12:38:47.316Z,5.43
2023-01-30T12:44:22.598Z,7.55
2023-01-30T12:50:01.138Z,3.90
2023-01-30T12:55:22.081Z,3.17
2023-01-30T13:01:02.260Z,3.00
2023-01-30T13:06:23.162Z,2.97
2023-01-30T13:11:41.924Z,2.42
2023-01-30T13:17:03.413Z,2.22
2023-01-30T13:22:26.039Z,2.20
2023-01-30T13:27:35.310Z,2.60
2023-01-30T13:33:03.078Z,2.78
2023-01-30T13:38:08.307Z,3.00
2023-01-30T13:43:23.117Z,2.78
2023-01-30T13:48:42.817Z,3.30
2023-01-30T13:54:10.710Z,3.25
2023-01-30T13:59:55.902Z,3.05
2023-01-30T14:05:05.817Z,4.10
2023-01-30T14:10:10.458Z,3.65
2023-01-30T14:15:15.489Z,3.88
2023-01-30T14:20:36.305Z,3.50
2023-01-30T14:25:47.604Z,4.10
2023-01-30T14:30:52.408Z,3.88
2023-01-30T14:36:04.679Z,3.08
2023-01-30T14:41:38.934Z,2.97
2023-01-30T14:46:54.470Z,2.80
2023-01-30T14:52:00.283Z,2.83
2023-01-30T14:57:27.673Z,3.28
2023-01-30T15:02:49.011Z,3.13
2023-01-30T15:08:07.211Z,3.90
2023-01-30T15:13:21.018Z,4.00
2023-01-30T15:18:28.499Z,3.80
2023-01-30T15:24:05.056Z,3.63
2023-01-30T15:29:48.608Z,3.88
2023-01-30T15:34:57.090Z,3.20
2023-01-30T15:40:21.701Z,4.15
2023-01-30T15:45:44.535Z,3.90
2023-01-30T15:50:54.823Z,3.70
2023-01-30T15:56:00.718Z,3.20
2023-01-30T16:01:03.907Z,3.03
2023-01-30T16:06:06.062Z,3.25
2023-01-30T16:11:12.531Z,2.80
2023-01-30T16:16:19.392Z,2.88
2023-01-30T16:21:34.312Z,3.08
2023-01-30T16:26:44.342Z,2.97
2023-01-30T16:31:52.543Z,3.35
2023-01-30T16:36:57.554Z,2.85
2023-01-30T16:42:13.802Z,3.53
2023-01-30T16:47:32.654Z,3.13
2023-01-30T16:52:44.396Z,3.42
2023-01-30T16:57:56.058Z,3.05
2023-01-30T17:03:08.757Z,3.53
2023-01-30T17:09:10.223Z,3.33
2023-01-30T17:14:17.513Z,3.53
2023-01-30T17:19:19.049Z,4.37
2023-01-30T17:24:24.196Z,3.70
2023-01-30T17:29:42.868Z,3.78
2023-01-30T17:34:47.723Z,4.00
2023-01-30T17:39:51.229Z,4.18
2023-01-30T17:44:55.398Z,4.38
2023-01-30T17:49:56.950Z,3.83
2023-01-30T17:55:07.791Z,3.90
2023-01-30T18:00:18.775Z,3.70
2023-01-30T18:05:29.477Z,4.38
2023-01-30T18:10:35.353Z,4.25
2023-01-30T18:15:40.238Z,4.32
2023-01-30T18:20:42.678Z,4.25
2023-01-30T18:25:46.587Z,3.78
2023-01-30T18:30:54.966Z,4.00
2023-01-30T18:36:04.297Z,3.88
2023-01-30T18:41:10.258Z,4.20
2023-01-30T18:46:27.073Z,3.45
2023-01-30T18:51:36.134Z,3.77
2023-01-30T18:56:38.636Z,4.22
2023-01-30T19:01:42.716Z,3.60
2023-01-30T19:06:48.392Z,3.55
2023-01-30T19:12:10.093Z,3.58
2023-01-30T19:17:16.311Z,3.72
2023-01-30T19:22:19.133Z,4.30
2023-01-30T19:27:21.121Z,4.05
2023-01-30T19:32:26.382Z,3.97
2023-01-30T19:37:30.339Z,3.60
2023-01-30T19:42:31.915Z,4.05
2023-01-30T19:47:34.389Z,3.90
2023-01-30T19:52:40.770Z,6.25
2023-01-30T19:57:46.819Z,4.00
2023-01-30T20:02:52.528Z,4.40
2023-01-30T20:07:58.383Z,4.30
2023-01-30T20:13:07.153Z,5.03
2023-01-30T20:18:08.703Z,5.00
2023-01-30T20:23:10.592Z,5.30
2023-01-30T20:28:19.101Z,4.13
2023-01-30T20:33:21.149Z,4.78
2023-01-30T20:38:25.021Z,4.25
2023-01-30T20:43:33.889Z,4.57
2023-01-30T20:48:37.364Z,5.50
2023-01-30T20:53:47.449Z,4.85
2023-01-30T20:58:50.717Z,5.35
2023-01-30T21:03:57.469Z,5.38
2023-01-30T21:09:03.250Z,5.47
2023-01-30T21:14:15.922Z,5.45
2023-01-30T21:19:23.105Z,5.68
2023-01-30T21:24:28.184Z,5.65
2023-01-30T21:29:34.965Z,5.80
2023-01-30T21:34:40.605Z,5.80
2023-01-30T21:45:31.811Z,6.68
2023-01-30T21:50:35.681Z,5.47
2023-01-30T21:55:37.850Z,5.38
2023-01-30T22:00:44.794Z,6.03
2023-01-30T22:05:48.985Z,6.25
2023-01-30T22:10:50.680Z,5.80
2023-01-30T22:16:14.764Z,5.15
2023-01-30T22:21:26.743Z,5.22
2023-01-30T22:26:31.238Z,4.72
2023-01-30T22:31:35.558Z,6.05
2023-01-30T22:36:39.808Z,5.43
2023-01-30T22:41:52.066Z,5.47
2023-01-30T22:46:55.261Z,5.65
2023-01-30T22:52:01.601Z,5.72
2023-01-30T22:57:06.091Z,6.07
2023-01-30T23:02:10.225Z,7.55
2023-01-30T23:07:17.691Z,5.80
2023-01-30T23:12:40.366Z,5.80
2023-01-30T23:18:05.617Z,5.93
2023-01-30T23:23:09.662Z,5.40
2023-01-30T23:28:24.563Z,5.63
2023-01-30T23:33:28.448Z,5.90
2023-01-30T23:38:35.408Z,5.43
2023-01-30T23:43:40.406Z,5.80
2023-01-30T23:48:44.478Z,6.90
2023-01-30T23:53:48.426Z,5.55
2023-01-30T23:58:50.313Z,5.68
